Time;durP1;ratioP1;P1;durP2;ratioP2;P2;SDS_P1;SDS_P2;PMS_P1;PMS_P2;Temp;Humidity;BMP_temperature;BMP_pressure;BME280_temperature;BME280_humidity;BME280_pressure;Samples;Min_cycle;Max_cycle;Signal;HPM_P1;HPM_P2
2020/12/10 00:01:18;;;;;;;79.55;34.55;;;3.90;96.00;;;;;;5029765;28;20069;-69
2020/12/10 00:03:46;;;;;;;85.75;36.67;;;3.80;96.00;;;;;;5041103;28;20088;-69
2020/12/10 00:06:12;;;;;;;71.55;32.38;;;3.80;96.20;;;;;;5015129;28;20057;-69
2020/12/10 00:08:37;;;;;;;80.45;36.28;;;3.80;96.30;;;;;;5025626;28;20466;-69
2020/12/10 00:11:03;;;;;;;80.55;37.50;;;3.80;96.30;;;;;;5022125;28;20025;-69
2020/12/10 00:13:28;;;;;;;88.57;37.75;;;3.80;96.40;;;;;;5028821;28;20444;-69
2020/12/10 00:15:54;;;;;;;80.70;34.28;;;3.90;96.50;;;;;;5011538;28;20018;-69
2020/12/10 00:18:19;;;;;;;73.78;33.70;;;3.90;96.40;;;;;;5019398;28;20429;-69
2020/12/10 00:20:44;;;;;;;71.70;34.10;;;3.90;96.30;;;;;;5011545;28;20020;-69
2020/12/10 00:23:10;;;;;;;79.05;35.83;;;4.00;96.30;;;;;;5018477;28;20034;-69
2020/12/10 00:25:35;;;;;;;75.53;34.40;;;3.90;96.30;;;;;;5028696;28;20053;-69
2020/12/10 00:28:01;;;;;;;77.70;35.08;;;4.00;96.30;;;;;;5030351;28;20037;-69
2020/12/10 00:30:26;;;;;;;71.68;34.50;;;4.00;96.40;;;;;;5033507;28;20029;-69
2020/12/10 00:32:52;;;;;;;81.72;35.72;;;4.10;96.40;;;;;;5021804;28;20081;-69
2020/12/10 00:35:17;;;;;;;85.32;37.88;;;4.10;96.40;;;;;;5034497;28;20033;-69
2020/12/10 00:37:43;;;;;;;79.53;34.42;;;4.10;96.40;;;;;;5020798;28;20045;-69
2020/12/10 00:40:08;;;;;;;90.82;40.47;;;4.10;96.30;;;;;;5041372;28;20029;-69
2020/12/10 00:42:35;;;;;;;86.32;36.03;;;4.10;96.20;;;;;;5023789;28;20043;-69
2020/12/10 00:45:00;;;;;;;87.30;37.30;;;4.00;96.20;;;;;;5034536;28;20079;-69
2020/12/10 00:47:25;;;;;;;75.53;36.15;;;4.10;96.20;;;;;;5004117;28;20033;-69
2020/12/10 00:49:51;;;;;;;86.75;37.60;;;4.00;96.20;;;;;;5034284;28;20460;-69
2020/12/10 00:52:17;;;;;;;79.53;36.05;;;4.00;96.00;;;;;;5035471;28;20120;-69
2020/12/10 00:54:42;;;;;;;76.05;34.33;;;4.00;96.00;;;;;;5039111;28;20045;-68
2020/12/10 00:57:11;;;;;;;70.20;33.03;;;4.00;96.00;;;;;;5029935;28;20034;-68
2020/12/10 00:59:38;;;;;;;84.07;38.28;;;4.00;96.00;;;;;;5034575;28;20034;-68
2020/12/10 01:02:04;;;;;;;88.25;37.95;;;3.90;96.00;;;;;;5023164;28;20038;-68
2020/12/10 01:04:30;;;;;;;90.82;36.10;;;3.90;96.00;;;;;;5048575;28;20044;-69
2020/12/10 01:06:55;;;;;;;80.05;35.83;;;3.90;96.00;;;;;;5043982;28;20378;-69
2020/12/10 01:09:21;;;;;;;85.38;36.72;;;3.80;95.90;;;;;;5030663;28;20057;-68
2020/12/10 01:11:46;;;;;;;75.68;36.60;;;3.80;96.00;;;;;;5014334;28;20034;-69
2020/12/10 01:14:14;;;;;;;84.20;37.75;;;3.70;96.10;;;;;;5028043;28;20386;-68
2020/12/10 01:16:39;;;;;;;77.65;35.67;;;3.70;96.10;;;;;;4996321;28;20122;-68
2020/12/10 01:19:05;;;;;;;85.25;37.00;;;3.70;96.10;;;;;;5038224;28;20086;-69
2020/12/10 01:21:32;;;;;;;83.93;36.78;;;3.70;96.10;;;;;;5014028;28;20375;-69
2020/12/10 01:23:59;;;;;;;84.82;36.30;;;3.70;96.20;;;;;;5015384;28;20041;-69
2020/12/10 01:26:29;;;;;;;89.63;37.20;;;3.70;96.20;;;;;;5029114;28;20048;-68
2020/12/10 01:28:55;;;;;;;94.50;40.38;;;3.70;96.20;;;;;;5042044;28;20076;-69
2020/12/10 01:31:21;;;;;;;93.43;38.05;;;3.70;96.20;;;;;;5032696;28;20508;-68
2020/12/10 01:33:47;;;;;;;88.32;39.03;;;3.70;96.20;;;;;;5031705;28;20033;-68
2020/12/10 01:36:16;;;;;;;94.75;38.90;;;3.60;96.20;;;;;;5042980;28;20036;-69
2020/12/10 01:38:42;;;;;;;92.35;38.03;;;3.60;96.20;;;;;;5045104;28;20056;-69
2020/12/10 01:41:07;;;;;;;90.10;37.95;;;3.50;96.30;;;;;;5053387;28;20429;-69
2020/12/10 01:43:33;;;;;;;82.07;37.28;;;3.60;96.30;;;;;;5040788;28;20579;-69
2020/12/10 01:45:58;;;;;;;91.85;36.92;;;3.60;96.40;;;;;;5044540;28;20017;-69
2020/12/10 01:48:43;;;;;;;81.70;33.92;;;3.60;96.40;;;;;;5046653;28;20103;-69
2020/12/10 01:51:08;;;;;;;96.95;35.70;;;3.60;96.30;;;;;;5051997;28;20461;-69
2020/12/10 01:53:34;;;;;;;90.28;36.13;;;3.50;96.20;;;;;;5040238;28;20440;-69
2020/12/10 01:56:00;;;;;;;87.20;37.45;;;3.50;96.20;;;;;;5031786;28;20502;-68
2020/12/10 01:58:25;;;;;;;95.70;39.13;;;3.50;96.20;;;;;;5040521;28;20108;-69
2020/12/10 02:00:51;;;;;;;94.82;36.58;;;3.50;96.20;;;;;;5033235;28;20059;-69
2020/12/10 02:03:18;;;;;;;85.68;38.53;;;3.40;96.30;;;;;;5029927;28;20518;-69
2020/12/10 02:05:45;;;;;;;97.90;38.75;;;3.30;96.30;;;;;;5030981;28;20398;-69
2020/12/10 02:08:11;;;;;;;85.40;35.13;;;3.20;96.40;;;;;;5018597;28;20029;-68
2020/12/10 02:10:37;;;;;;;86.82;38.67;;;3.20;96.60;;;;;;5032294;28;20029;-68
2020/12/10 02:13:03;;;;;;;90.68;37.40;;;3.20;96.70;;;;;;5017976;28;20017;-68
2020/12/10 02:15:28;;;;;;;89.15;39.53;;;3.10;96.70;;;;;;5034664;28;20108;-68
2020/12/10 02:17:54;;;;;;;94.88;40.55;;;3.10;96.80;;;;;;5017377;28;20108;-69
2020/12/10 02:20:21;;;;;;;90.90;38.22;;;3.00;96.80;;;;;;5032380;28;20201;-68
2020/12/10 02:23:01;;;;;;;91.82;34.65;;;3.00;96.80;;;;;;5017042;28;20073;-68
2020/12/10 02:25:30;;;;;;;94.95;37.30;;;3.00;96.80;;;;;;5032516;28;20374;-68
2020/12/10 02:27:57;;;;;;;99.07;39.95;;;3.00;96.80;;;;;;5014837;28;20486;-68
2020/12/10 02:30:22;;;;;;;105.28;39.63;;;3.00;96.80;;;;;;5010671;28;20068;-68
2020/12/10 02:32:48;;;;;;;87.13;36.42;;;2.90;97.20;;;;;;5032089;28;20029;-68
2020/12/10 02:35:13;;;;;;;94.95;40.13;;;2.90;97.10;;;;;;5020517;28;20029;-68
2020/12/10 02:37:39;;;;;;;93.93;37.53;;;2.90;97.30;;;;;;5013243;28;20040;-69
2020/12/10 02:40:04;;;;;;;94.15;37.92;;;2.90;97.20;;;;;;5021996;28;20084;-69
2020/12/10 02:42:29;;;;;;;97.53;38.97;;;2.90;97.30;;;;;;5012564;28;20057;-68
2020/12/10 02:44:55;;;;;;;90.22;38.13;;;2.90;97.40;;;;;;5023416;28;20409;-68
2020/12/10 02:47:20;;;;;;;104.15;40.47;;;2.90;97.30;;;;;;5031857;28;20053;-67
2020/12/10 02:49:46;;;;;;;90.97;37.08;;;2.90;97.40;;;;;;5025104;28;20052;-68
2020/12/10 02:52:11;;;;;;;81.93;35.75;;;2.90;97.40;;;;;;5038003;28;20032;-68
2020/12/10 02:54:37;;;;;;;97.10;38.63;;;2.90;97.30;;;;;;5038503;28;20033;-68
2020/12/10 02:57:02;;;;;;;92.95;35.60;;;3.00;97.40;;;;;;5032104;28;20558;-68
2020/12/10 02:59:28;;;;;;;94.10;38.75;;;3.00;97.30;;;;;;5030472;28;20111;-68
2020/12/10 03:01:53;;;;;;;83.82;36.03;;;3.10;97.40;;;;;;5027237;28;20048;-68
2020/12/10 03:04:19;;;;;;;96.95;38.15;;;3.10;97.30;;;;;;5041781;28;20116;-69
2020/12/10 03:06:44;;;;;;;85.03;36.58;;;3.10;97.30;;;;;;5011783;28;20418;-69
2020/12/10 03:09:10;;;;;;;93.15;39.10;;;3.20;97.30;;;;;;5013090;28;20026;-69
2020/12/10 03:11:35;;;;;;;93.13;36.47;;;3.20;97.10;;;;;;5012177;28;20049;-70
2020/12/10 03:14:01;;;;;;;96.13;38.58;;;3.20;97.10;;;;;;5032176;28;20109;-69
2020/12/10 03:16:26;;;;;;;95.88;38.00;;;3.20;97.00;;;;;;5051440;28;20029;-69
2020/12/10 03:18:52;;;;;;;93.72;34.83;;;3.20;97.00;;;;;;5017503;28;20493;-70
2020/12/10 03:21:17;;;;;;;96.65;37.35;;;3.20;97.00;;;;;;5038957;28;20037;-69
2020/12/10 03:23:43;;;;;;;92.70;35.65;;;3.20;97.00;;;;;;5020145;28;20486;-69
2020/12/10 03:26:08;;;;;;;88.45;34.97;;;3.20;97.00;;;;;;5031799;28;20022;-69
2020/12/10 03:28:34;;;;;;;94.95;38.42;;;3.20;97.10;;;;;;5029480;28;20384;-70
2020/12/10 03:30:59;;;;;;;88.20;37.65;;;3.30;97.00;;;;;;5031642;28;20025;-70
2020/12/10 03:33:25;;;;;;;98.70;37.35;;;3.30;97.00;;;;;;5014022;28;20030;-69
2020/12/10 03:35:50;;;;;;;90.70;37.75;;;3.30;96.90;;;;;;5047389;28;20113;-69
2020/12/10 03:38:16;;;;;;;90.63;34.10;;;3.30;96.90;;;;;;5021193;28;20033;-69
2020/12/10 03:40:41;;;;;;;98.03;39.05;;;3.30;96.90;;;;;;5012027;28;20072;-69
2020/12/10 03:43:07;;;;;;;91.15;36.20;;;3.30;96.90;;;;;;5017442;28;20041;-69
2020/12/10 03:45:33;;;;;;;86.57;35.03;;;3.30;96.90;;;;;;5027983;28;20021;-69
2020/12/10 03:47:58;;;;;;;80.60;33.75;;;3.30;96.80;;;;;;5017618;28;20030;-69
2020/12/10 03:50:24;;;;;;;84.65;36.85;;;3.30;96.80;;;;;;5033120;28;20421;-70
2020/12/10 03:52:49;;;;;;;98.40;37.05;;;3.20;96.80;;;;;;5006853;28;20069;-70
2020/12/10 03:55:15;;;;;;;78.93;35.25;;;3.20;96.80;;;;;;5020117;28;20080;-70
2020/12/10 03:57:40;;;;;;;101.32;36.30;;;3.20;96.90;;;;;;5011589;28;20045;-71
2020/12/10 04:00:06;;;;;;;83.78;34.90;;;3.20;96.80;;;;;;5027553;28;20049;-70
2020/12/10 04:02:31;;;;;;;89.47;36.75;;;3.20;96.90;;;;;;5037629;28;20037;-70
2020/12/10 04:04:57;;;;;;;85.97;36.97;;;3.20;96.90;;;;;;5022939;28;20025;-70
2020/12/10 04:07:22;;;;;;;80.68;32.70;;;3.20;96.90;;;;;;5015303;28;20073;-70
2020/12/10 04:09:48;;;;;;;80.20;33.20;;;3.20;96.80;;;;;;5023910;28;20036;-70
2020/12/10 04:12:13;;;;;;;86.90;36.42;;;3.20;96.90;;;;;;5025816;28;20021;-70
2020/12/10 04:14:39;;;;;;;88.28;35.78;;;3.20;96.80;;;;;;5047674;28;20108;-70
2020/12/10 04:17:04;;;;;;;84.20;35.20;;;3.20;96.90;;;;;;5015116;28;20025;-70
2020/12/10 04:19:30;;;;;;;85.47;34.05;;;3.20;96.80;;;;;;5021791;28;20429;-70
2020/12/10 04:21:55;;;;;;;85.32;34.05;;;3.20;96.90;;;;;;5016024;28;20559;-70
2020/12/10 04:24:20;;;;;;;94.75;37.83;;;3.20;97.00;;;;;;5020101;28;20029;-70
2020/12/10 04:26:46;;;;;;;87.00;35.08;;;3.20;97.00;;;;;;5034824;28;20075;-70
2020/12/10 04:29:13;;;;;;;89.10;35.28;;;3.20;97.00;;;;;;5032484;28;20108;-70
2020/12/10 04:31:40;;;;;;;93.35;36.83;;;3.20;97.00;;;;;;5054577;28;20032;-70
2020/12/10 04:34:06;;;;;;;86.55;36.53;;;3.20;97.00;;;;;;5041790;28;21542;-70
2020/12/10 04:36:31;;;;;;;89.93;36.30;;;3.20;97.00;;;;;;5016716;28;20033;-70
2020/12/10 04:38:57;;;;;;;93.80;37.08;;;3.20;96.90;;;;;;5025872;28;20101;-70
2020/12/10 04:41:22;;;;;;;98.55;37.33;;;3.20;96.90;;;;;;5047159;28;20104;-70
2020/12/10 04:43:48;;;;;;;85.25;35.83;;;3.20;96.90;;;;;;5047845;28;20032;-70
2020/12/10 04:46:14;;;;;;;85.85;35.28;;;3.20;97.00;;;;;;5033289;28;20100;-70
2020/12/10 04:48:40;;;;;;;79.57;35.38;;;3.20;96.90;;;;;;5033720;28;20481;-70
2020/12/10 04:51:07;;;;;;;88.05;35.42;;;3.20;97.00;;;;;;5033590;28;20072;-71
2020/12/10 04:53:33;;;;;;;97.22;36.08;;;3.20;97.00;;;;;;5025852;28;20120;-70
2020/12/10 04:56:06;;;;;;;93.07;36.28;;;3.20;97.00;;;;;;5044960;28;20111;-70
2020/12/10 04:58:33;;;;;;;95.07;37.90;;;3.20;97.00;;;;;;5038842;28;20032;-72
2020/12/10 05:01:00;;;;;;;111.15;37.80;;;3.20;96.90;;;;;;5031456;28;20025;-74
2020/12/10 05:03:26;;;;;;;101.03;37.92;;;3.10;96.90;;;;;;5034307;28;20037;-75
2020/12/10 05:05:52;;;;;;;87.00;35.88;;;3.10;97.00;;;;;;5045355;28;20431;-74
2020/12/10 05:08:30;;;;;;;93.45;37.75;;;3.10;97.00;;;;;;5037026;28;20041;-74
2020/12/10 05:10:56;;;;;;;97.45;36.97;;;3.10;97.00;;;;;;5030153;28;20025;-74
2020/12/10 05:13:22;;;;;;;87.03;37.15;;;3.20;97.10;;;;;;5031695;28;20087;-74
2020/12/10 05:15:47;;;;;;;91.00;35.78;;;3.10;97.00;;;;;;5036812;28;20124;-73
2020/12/10 05:18:14;;;;;;;86.78;34.28;;;3.10;97.00;;;;;;5017606;28;20061;-71
2020/12/10 05:20:49;;;;;;;80.80;34.15;;;3.10;97.00;;;;;;5028923;28;20181;-71
2020/12/10 05:23:39;;;;;;;87.25;33.45;;;3.10;97.00;;;;;;5014469;28;20044;-71
2020/12/10 05:26:09;;;;;;;80.28;34.78;;;3.20;96.90;;;;;;5043465;28;20037;-71
2020/12/10 05:28:40;;;;;;;81.18;33.08;;;3.10;96.90;;;;;;5017886;28;20033;-71
2020/12/10 05:31:11;;;;;;;96.18;38.47;;;3.10;96.90;;;;;;5042397;28;20060;-71
2020/12/10 05:33:50;;;;;;;86.68;34.55;;;3.10;97.00;;;;;;5035926;28;20022;-71
2020/12/10 05:36:15;;;;;;;79.82;32.75;;;3.00;97.00;;;;;;5030975;28;20025;-71
2020/12/10 05:39:04;;;;;;;95.22;35.45;;;3.10;97.00;;;;;;5031207;28;20091;-71
2020/12/10 05:41:32;;;;;;;96.63;36.13;;;3.10;97.10;;;;;;5046351;28;20470;-71
2020/12/10 05:44:15;;;;;;;98.45;36.72;;;3.10;97.00;;;;;;5033257;28;20033;-70
2020/12/10 05:46:40;;;;;;;96.03;36.67;;;3.10;97.10;;;;;;5017368;28;20076;-71
2020/12/10 05:49:07;;;;;;;98.68;37.08;;;3.10;97.10;;;;;;5025318;28;20045;-71
2020/12/10 05:51:40;;;;;;;95.75;38.22;;;3.10;97.00;;;;;;5033393;28;20039;-71
2020/12/10 05:54:09;;;;;;;93.18;36.38;;;3.10;97.00;;;;;;5050794;28;20044;-72
2020/12/10 05:56:48;;;;;;;93.60;36.70;;;3.20;97.10;;;;;;5030479;28;20079;-72
2020/12/10 05:59:14;;;;;;;87.57;35.42;;;3.20;97.10;;;;;;5045418;28;20465;-68
2020/12/10 06:01:39;;;;;;;94.38;35.63;;;3.20;97.00;;;;;;5048463;28;20040;-72
2020/12/10 06:04:05;;;;;;;94.15;37.50;;;3.20;97.00;;;;;;5052941;28;20115;-73
2020/12/10 06:06:31;;;;;;;94.95;35.50;;;3.10;97.00;;;;;;5032196;28;20029;-72
2020/12/10 06:09:05;;;;;;;89.85;33.65;;;3.10;97.00;;;;;;5031695;28;20078;-71
2020/12/10 06:11:31;;;;;;;90.00;36.70;;;3.20;97.10;;;;;;5046492;28;20311;-71
2020/12/10 06:14:15;;;;;;;92.10;35.08;;;3.20;97.00;;;;;;5039306;28;20032;-74
2020/12/10 06:16:41;;;;;;;92.30;36.33;;;3.20;97.00;;;;;;5034893;28;20033;-72
2020/12/10 06:19:10;;;;;;;80.28;34.72;;;3.20;97.00;;;;;;5028239;28;20406;-72
2020/12/10 06:21:37;;;;;;;84.20;34.60;;;3.20;97.00;;;;;;5047079;28;20047;-72
2020/12/10 06:24:25;;;;;;;101.60;38.63;;;3.30;97.00;;;;;;5036603;28;20034;-72
2020/12/10 06:26:55;;;;;;;88.97;35.95;;;3.30;96.90;;;;;;5001866;28;20041;-72
2020/12/10 06:29:32;;;;;;;90.20;33.55;;;3.30;97.10;;;;;;5012527;28;20125;-72
2020/12/10 06:32:08;;;;;;;98.00;33.67;;;3.20;96.70;;;;;;5032776;28;20041;-71
2020/12/10 06:34:34;;;;;;;90.93;35.05;;;3.20;96.70;;;;;;5027501;28;20030;-72
2020/12/10 06:37:17;;;;;;;93.40;35.92;;;3.20;96.60;;;;;;5035990;28;20033;-71
2020/12/10 06:39:43;;;;;;;90.90;34.40;;;3.10;96.70;;;;;;5030724;28;20163;-72
2020/12/10 06:42:09;;;;;;;90.22;34.30;;;3.10;96.80;;;;;;5025101;28;20057;-72
2020/12/10 06:44:35;;;;;;;91.50;34.90;;;3.10;96.90;;;;;;5013404;28;20474;-72
2020/12/10 06:47:01;;;;;;;96.25;35.38;;;3.10;96.90;;;;;;5026522;28;20034;-72
2020/12/10 06:49:31;;;;;;;90.97;32.63;;;3.10;97.00;;;;;;5012321;28;20477;-73
2020/12/10 06:52:18;;;;;;;86.15;33.63;;;3.10;97.00;;;;;;5041838;28;20028;-72
2020/12/10 06:55:02;;;;;;;90.90;35.13;;;3.20;97.00;;;;;;5030899;28;20529;-71
2020/12/10 06:58:12;;;;;;;84.80;31.83;;;3.20;97.00;;;;;;5023862;28;20072;-71
2020/12/10 07:00:43;;;;;;;82.00;32.85;;;3.20;97.00;;;;;;5026460;28;20052;-71
2020/12/10 07:03:11;;;;;;;83.43;31.27;;;3.30;97.00;;;;;;5025724;28;20099;-70
2020/12/10 07:05:37;;;;;;;85.93;32.20;;;3.30;97.00;;;;;;5031673;28;20056;-70
2020/12/10 07:08:05;;;;;;;81.78;30.80;;;3.30;96.90;;;;;;5016770;28;20062;-70
2020/12/10 07:10:51;;;;;;;77.40;31.77;;;3.30;96.70;;;;;;5023062;28;20095;-70
2020/12/10 07:13:37;;;;;;;78.00;31.00;;;3.30;96.80;;;;;;5012584;28;20037;-70
2020/12/10 07:16:03;;;;;;;74.85;31.48;;;3.30;96.80;;;;;;5032784;28;20021;-71
2020/12/10 07:18:28;;;;;;;89.45;32.08;;;3.30;96.70;;;;;;5033086;28;20100;-71
2020/12/10 07:20:54;;;;;;;84.25;31.70;;;3.30;96.70;;;;;;5033115;28;20026;-70
2020/12/10 07:23:19;;;;;;;81.40;32.03;;;3.30;96.70;;;;;;5044323;28;20128;-71
2020/12/10 07:25:45;;;;;;;95.10;34.63;;;3.30;96.60;;;;;;5039207;28;20029;-71
2020/12/10 07:28:10;;;;;;;88.88;32.67;;;3.30;96.60;;;;;;5014063;28;20077;-71
2020/12/10 07:30:36;;;;;;;88.28;33.00;;;3.30;96.70;;;;;;5021484;28;20021;-71
2020/12/10 07:33:04;;;;;;;86.68;31.02;;;3.30;96.60;;;;;;5014584;28;20088;-71
2020/12/10 07:35:36;;;;;;;85.82;34.00;;;3.40;96.70;;;;;;5020979;28;20037;-71
2020/12/10 07:38:10;;;;;;;97.53;34.97;;;3.40;96.60;;;;;;5034019;28;20039;-70
2020/12/10 07:40:36;;;;;;;80.00;31.55;;;3.40;96.60;;;;;;5036228;28;20362;-71
2020/12/10 07:43:03;;;;;;;76.30;29.42;;;3.40;96.40;;;;;;5053861;28;20055;-72
2020/12/10 07:45:28;;;;;;;77.85;29.17;;;3.30;96.50;;;;;;5045763;28;20032;-71
2020/12/10 07:47:55;;;;;;;77.07;30.05;;;3.40;96.50;;;;;;5014083;28;20034;-70
2020/12/10 07:50:22;;;;;;;70.50;29.35;;;3.30;96.40;;;;;;5015893;28;20591;-70
2020/12/10 07:52:49;;;;;;;72.25;30.10;;;3.30;96.40;;;;;;5013088;28;20045;-71
2020/12/10 07:55:21;;;;;;;69.35;29.70;;;3.30;96.30;;;;;;5024033;28;20041;-71
2020/12/10 07:57:56;;;;;;;69.63;30.77;;;3.40;96.20;;;;;;5031721;28;20030;-70
2020/12/10 08:00:24;;;;;;;68.60;28.15;;;3.30;96.00;;;;;;5028478;28;20428;-71
2020/12/10 08:03:03;;;;;;;69.22;27.67;;;3.20;96.00;;;;;;5029464;28;20121;-70
2020/12/10 08:05:28;;;;;;;62.60;27.90;;;3.10;96.10;;;;;;5030034;28;20022;-70
2020/12/10 08:07:55;;;;;;;64.50;25.35;;;3.10;96.10;;;;;;5031023;28;20028;-70
2020/12/10 08:10:32;;;;;;;66.15;29.83;;;3.10;96.20;;;;;;5026943;28;20455;-70
2020/12/10 08:13:19;;;;;;;66.15;29.15;;;3.10;96.10;;;;;;5040284;28;20084;-70
2020/12/10 08:15:46;;;;;;;72.85;26.73;;;3.10;96.10;;;;;;5015568;28;20556;-71
2020/12/10 08:18:18;;;;;;;66.97;26.60;;;3.10;96.10;;;;;;5015918;28;20021;-70
2020/12/10 08:20:46;;;;;;;68.90;28.38;;;3.10;96.20;;;;;;5032994;28;20025;-71
2020/12/10 08:23:14;;;;;;;64.50;29.27;;;3.20;96.10;;;;;;5038729;28;20490;-69
2020/12/10 08:25:42;;;;;;;71.75;31.38;;;3.20;96.00;;;;;;5018011;28;20117;-71
2020/12/10 08:28:09;;;;;;;74.30;31.80;;;3.20;96.00;;;;;;5032184;28;20075;-72
2020/12/10 08:30:35;;;;;;;76.90;30.67;;;3.20;96.00;;;;;;5043668;28;20103;-69
2020/12/10 08:33:01;;;;;;;67.22;28.10;;;3.20;96.00;;;;;;5046668;28;20067;-72
2020/12/10 08:35:28;;;;;;;75.72;29.75;;;3.20;96.00;;;;;;5047120;28;20079;-72
2020/12/10 08:37:53;;;;;;;64.72;29.33;;;3.20;96.00;;;;;;5045066;28;20029;-71
2020/12/10 08:40:24;;;;;;;62.40;26.60;;;3.30;96.00;;;;;;5034364;28;20034;-71
2020/12/10 08:42:50;;;;;;;65.65;28.52;;;3.30;96.00;;;;;;5032185;28;20041;-72
2020/12/10 08:45:32;;;;;;;74.00;30.25;;;3.40;96.00;;;;;;5031018;28;20083;-74
2020/12/10 08:48:00;;;;;;;72.82;29.65;;;3.40;95.90;;;;;;5030929;28;20037;-71
2020/12/10 08:50:29;;;;;;;75.90;28.42;;;3.40;96.00;;;;;;5030722;28;20063;-73
2020/12/10 08:53:00;;;;;;;66.65;29.25;;;3.40;95.90;;;;;;5016284;28;20046;-73
2020/12/10 08:55:36;;;;;;;78.72;30.92;;;3.40;95.70;;;;;;5029469;28;20030;-74
2020/12/10 08:58:01;;;;;;;79.82;32.42;;;3.30;95.70;;;;;;5045451;28;20459;-72
2020/12/10 09:00:27;;;;;;;79.35;30.65;;;3.20;95.60;;;;;;5051370;28;20112;-72
2020/12/10 09:02:52;;;;;;;80.03;32.70;;;3.10;95.80;;;;;;5035044;28;20327;-71
2020/12/10 09:05:18;;;;;;;86.38;32.35;;;3.10;95.90;;;;;;5041472;28;20112;-71
2020/12/10 09:07:44;;;;;;;81.13;30.98;;;3.10;96.20;;;;;;5051991;28;20500;-71
2020/12/10 09:10:09;;;;;;;65.68;27.85;;;3.10;96.10;;;;;;5035968;28;20061;-71
2020/12/10 09:12:35;;;;;;;79.63;30.27;;;3.20;96.10;;;;;;5033884;28;20033;-72
2020/12/10 09:15:00;;;;;;;83.85;31.63;;;3.20;96.10;;;;;;5025947;28;20030;-71
2020/12/10 09:17:27;;;;;;;89.28;31.55;;;3.20;96.10;;;;;;5029578;28;20040;-71
2020/12/10 09:19:53;;;;;;;86.63;32.63;;;3.20;96.00;;;;;;5001536;28;20048;-72
2020/12/10 09:22:18;;;;;;;90.15;33.85;;;3.20;96.00;;;;;;5030523;28;20493;-72
2020/12/10 09:24:44;;;;;;;99.35;33.97;;;3.30;96.10;;;;;;5033945;28;20032;-72
2020/12/10 09:27:09;;;;;;;95.88;33.28;;;3.30;96.20;;;;;;5032221;28;20040;-72
2020/12/10 09:29:36;;;;;;;90.68;33.10;;;3.30;96.20;;;;;;5030992;28;20096;-72
2020/12/10 09:32:02;;;;;;;85.05;31.15;;;3.40;96.20;;;;;;5033137;28;20152;-70
2020/12/10 09:34:28;;;;;;;101.93;37.08;;;3.40;96.30;;;;;;5025424;28;20493;-72
2020/12/10 09:36:54;;;;;;;91.88;33.67;;;3.40;96.20;;;;;;5032126;28;20040;-73
2020/12/10 09:39:20;;;;;;;91.55;32.40;;;3.40;96.20;;;;;;5016967;28;20058;-72
2020/12/10 09:41:45;;;;;;;102.20;34.35;;;3.40;96.20;;;;;;5038094;28;20037;-72
2020/12/10 09:44:11;;;;;;;91.35;36.83;;;3.40;96.10;;;;;;5044637;28;20448;-74
2020/12/10 09:46:37;;;;;;;91.50;35.03;;;3.40;96.10;;;;;;5032813;28;20038;-74
2020/12/10 09:49:03;;;;;;;96.65;33.95;;;3.40;96.00;;;;;;5032463;28;20497;-72
2020/12/10 09:51:35;;;;;;;89.65;33.38;;;3.30;96.10;;;;;;5029140;28;20025;-73
2020/12/10 09:54:10;;;;;;;92.25;34.90;;;3.40;96.20;;;;;;5035917;28;20699;-73
2020/12/10 09:57:05;;;;;;;97.40;34.38;;;3.40;96.30;;;;;;5027579;28;20433;-75
2020/12/10 09:59:34;;;;;;;88.72;34.95;;;3.40;96.20;;;;;;5032274;28;20029;-74
2020/12/10 10:02:00;;;;;;;86.40;31.05;;;3.30;96.20;;;;;;5038812;28;20456;-72
2020/12/10 10:04:25;;;;;;;86.47;31.25;;;3.30;96.10;;;;;;5051814;28;20020;-73
2020/12/10 10:06:51;;;;;;;86.18;32.38;;;3.30;96.20;;;;;;5020251;28;20045;-73
2020/12/10 10:09:16;;;;;;;79.78;29.80;;;3.40;96.20;;;;;;5014668;28;20491;-72
2020/12/10 10:11:44;;;;;;;83.93;32.50;;;3.40;96.20;;;;;;5008321;28;20032;-72
2020/12/10 10:14:09;;;;;;;93.57;35.05;;;3.40;96.20;;;;;;5021550;28;20026;-75
2020/12/10 10:16:35;;;;;;;88.45;29.98;;;3.40;96.20;;;;;;5025638;28;20120;-73
2020/12/10 10:19:00;;;;;;;87.93;30.33;;;3.40;96.20;;;;;;5029828;28;20090;-73
2020/12/10 10:21:28;;;;;;;78.00;32.33;;;3.50;96.20;;;;;;4995122;28;20117;-72
2020/12/10 10:23:56;;;;;;;87.70;30.38;;;3.50;96.10;;;;;;5029707;28;20037;-73
2020/12/10 10:26:22;;;;;;;84.10;31.63;;;3.40;96.10;;;;;;5033004;28;20021;-73
2020/12/10 10:28:50;;;;;;;76.13;28.85;;;3.40;96.10;;;;;;5031002;28;20490;-73
2020/12/10 10:31:16;;;;;;;82.32;31.48;;;3.40;96.10;;;;;;5019692;28;20026;-73
2020/12/10 10:33:41;;;;;;;73.40;28.65;;;3.40;96.10;;;;;;5025246;28;20496;-72
2020/12/10 10:36:07;;;;;;;71.38;28.98;;;3.50;96.20;;;;;;5040368;28;20025;-73
2020/12/10 10:38:32;;;;;;;82.10;28.75;;;3.50;96.40;;;;;;5037514;28;20108;-73
2020/12/10 10:40:58;;;;;;;75.03;29.48;;;3.50;96.10;;;;;;5030954;28;20029;-72
2020/12/10 10:43:24;;;;;;;74.85;30.50;;;3.50;96.10;;;;;;5023438;28;20026;-74
2020/12/10 10:45:52;;;;;;;77.85;27.77;;;3.60;96.00;;;;;;4995303;28;20434;-72
2020/12/10 10:48:17;;;;;;;72.30;28.63;;;3.60;96.00;;;;;;5020844;28;20030;-73
2020/12/10 10:50:43;;;;;;;74.90;28.65;;;3.60;96.00;;;;;;4995036;28;20080;-73
2020/12/10 10:53:08;;;;;;;72.78;26.25;;;3.70;96.00;;;;;;5012035;28;20045;-73
2020/12/10 10:55:34;;;;;;;77.53;29.30;;;3.70;96.00;;;;;;5012320;28;20034;-74
2020/12/10 10:57:59;;;;;;;70.63;29.02;;;3.70;95.90;;;;;;5012649;28;20117;-72
2020/12/10 11:00:25;;;;;;;83.82;31.10;;;3.70;95.90;;;;;;4994653;28;20034;-73
2020/12/10 11:02:50;;;;;;;79.15;29.75;;;3.70;95.80;;;;;;5012268;28;20085;-73
2020/12/10 11:05:16;;;;;;;77.03;28.60;;;3.70;95.80;;;;;;5022300;28;20017;-73
2020/12/10 11:07:43;;;;;;;75.80;27.88;;;3.70;95.80;;;;;;5031215;28;20036;-73
2020/12/10 11:10:09;;;;;;;83.13;30.92;;;3.80;95.90;;;;;;5032004;28;20060;-73
2020/12/10 11:12:36;;;;;;;81.63;30.17;;;3.70;95.90;;;;;;5031221;28;20037;-73
2020/12/10 11:15:01;;;;;;;83.00;30.15;;;3.80;95.90;;;;;;5034760;28;20032;-73
2020/12/10 11:17:27;;;;;;;67.30;28.42;;;3.80;95.80;;;;;;5051671;28;20029;-73
2020/12/10 11:19:52;;;;;;;75.55;30.10;;;3.80;95.80;;;;;;5050011;28;20028;-73
2020/12/10 11:22:18;;;;;;;74.97;30.30;;;3.80;95.70;;;;;;5042827;28;20042;-73
2020/12/10 11:24:43;;;;;;;71.88;29.48;;;3.70;95.40;;;;;;5031825;28;20022;-73
2020/12/10 11:27:09;;;;;;;77.78;29.88;;;3.60;95.50;;;;;;5010476;28;20029;-72
2020/12/10 11:29:34;;;;;;;73.28;28.02;;;3.60;95.50;;;;;;5011822;28;20060;-73
2020/12/10 11:32:00;;;;;;;68.47;26.30;;;3.50;95.50;;;;;;5011874;28;20130;-73
2020/12/10 11:34:26;;;;;;;74.70;28.08;;;3.50;95.50;;;;;;5013184;28;20033;-73
2020/12/10 11:36:52;;;;;;;73.95;27.88;;;3.40;95.60;;;;;;5031699;28;20036;-74
2020/12/10 11:39:17;;;;;;;72.18;26.73;;;3.30;95.70;;;;;;5023806;28;20040;-73
2020/12/10 11:41:43;;;;;;;72.20;28.67;;;3.30;95.70;;;;;;5011960;28;20534;-73
2020/12/10 11:44:09;;;;;;;82.18;27.85;;;3.20;95.80;;;;;;5019911;28;20103;-73
2020/12/10 11:46:35;;;;;;;72.53;27.33;;;3.20;95.90;;;;;;5031282;28;20065;-73
2020/12/10 11:49:00;;;;;;;66.40;26.33;;;3.10;95.90;;;;;;5030529;28;20103;-73
2020/12/10 11:51:26;;;;;;;69.78;26.65;;;3.10;96.00;;;;;;5023475;28;20018;-73
2020/12/10 11:53:53;;;;;;;75.43;27.02;;;3.20;96.00;;;;;;5025058;28;20054;-73
2020/12/10 11:56:19;;;;;;;66.38;26.77;;;3.10;96.00;;;;;;5026785;28;20037;-73
2020/12/10 11:58:45;;;;;;;72.97;29.45;;;3.20;96.10;;;;;;5030617;28;20437;-72
2020/12/10 12:01:11;;;;;;;67.22;26.20;;;3.20;96.10;;;;;;5030215;28;20034;-73
2020/12/10 12:03:36;;;;;;;72.30;26.00;;;3.10;96.10;;;;;;5016931;28;20037;-72
2020/12/10 12:06:02;;;;;;;74.13;27.13;;;3.10;96.20;;;;;;5041452;28;20026;-73
2020/12/10 12:08:28;;;;;;;70.03;27.75;;;3.00;96.20;;;;;;5031492;28;20075;-72
2020/12/10 12:10:58;;;;;;;80.65;27.23;;;3.00;96.30;;;;;;5030152;28;20044;-72
2020/12/10 12:13:24;;;;;;;70.40;26.33;;;3.00;96.30;;;;;;5022649;28;20034;-72
2020/12/10 12:15:49;;;;;;;66.80;23.90;;;2.90;96.40;;;;;;5011582;28;20489;-72
2020/12/10 12:18:16;;;;;;;58.22;22.48;;;2.90;96.40;;;;;;5026175;28;20393;-70
2020/12/10 12:20:43;;;;;;;64.35;24.88;;;2.80;96.40;;;;;;5013346;28;20668;-71
2020/12/10 12:23:08;;;;;;;66.90;25.20;;;2.90;96.40;;;;;;5028598;28;20037;-74
2020/12/10 12:25:35;;;;;;;58.17;23.02;;;2.80;96.40;;;;;;5032263;28;20472;-73
2020/12/10 12:28:00;;;;;;;59.60;22.13;;;2.80;96.40;;;;;;5034861;28;20036;-74
2020/12/10 12:30:26;;;;;;;60.50;25.55;;;2.70;96.40;;;;;;5015698;28;20029;-72
2020/12/10 12:32:51;;;;;;;67.22;25.85;;;2.70;96.50;;;;;;5033760;28;20311;-74
2020/12/10 12:35:17;;;;;;;74.03;27.48;;;2.60;96.60;;;;;;5033887;28;20394;-74
2020/12/10 12:37:42;;;;;;;68.72;26.77;;;2.60;96.80;;;;;;5033983;28;20064;-74